sensor_id;sensor_type;location;lat;lon;timestamp;pressure;altitude;pressure_sealevel;temperature;humidity
80927;BME280;70385;44.538;18.532;2023-12-29T00:02:05;100184.88;;;-0.85;100.00
80927;BME280;70385;44.538;18.532;2023-12-29T00:04:31;100182.28;;;-0.85;100.00
80927;BME280;70385;44.538;18.532;2023-12-29T00:06:57;100177.97;;;-0.89;100.00
80927;BME280;70385;44.538;18.532;2023-12-29T00:09:23;100175.38;;;-0.89;100.00
80927;BME280;70385;44.538;18.532;2023-12-29T00:11:52;100175.44;;;-0.86;100.00
80927;BME280;70385;44.538;18.532;2023-12-29T00:14:20;100174.50;;;-0.93;100.00
80927;BME280;70385;44.538;18.532;2023-12-29T00:16:46;100159.03;;;-0.96;100.00
80927;BME280;70385;44.538;18.532;2023-12-29T00:19:12;100166.06;;;-0.83;100.00
80927;BME280;70385;44.538;18.532;2023-12-29T00:21:39;100169.59;;;-0.76;100.00
80927;BME280;70385;44.538;18.532;2023-12-29T00:24:05;100170.53;;;-0.70;100.00
80927;BME280;70385;44.538;18.532;2023-12-29T00:26:31;100162.81;;;-0.70;100.00
80927;BME280;70385;44.538;18.532;2023-12-29T00:28:57;100156.56;;;-0.88;100.00
80927;BME280;70385;44.538;18.532;2023-12-29T00:31:23;100164.19;;;-0.95;100.00
80927;BME280;70385;44.538;18.532;2023-12-29T00:33:50;100165.06;;;-0.93;100.00
80927;BME280;70385;44.538;18.532;2023-12-29T00:36:19;100160.84;;;-0.89;100.00
80927;BME280;70385;44.538;18.532;2023-12-29T00:38:45;100162.41;;;-0.99;100.00
80927;BME280;70385;44.538;18.532;2023-12-29T00:41:12;100173.63;;;-0.94;100.00
80927;BME280;70385;44.538;18.532;2023-12-29T00:43:38;100177.81;;;-0.97;100.00
80927;BME280;70385;44.538;18.532;2023-12-29T00:46:05;100164.00;;;-1.07;100.00
80927;BME280;70385;44.538;18.532;2023-12-29T00:48:31;100169.13;;;-1.08;100.00
80927;BME280;70385;44.538;18.532;2023-12-29T00:50:57;100176.94;;;-1.01;100.00
80927;BME280;70385;44.538;18.532;2023-12-29T00:53:27;100181.19;;;-1.03;100.00
80927;BME280;70385;44.538;18.532;2023-12-29T00:55:52;100163.03;;;-1.15;100.00
80927;BME280;70385;44.538;18.532;2023-12-29T00:58:18;100166.50;;;-1.13;100.00
80927;BME280;70385;44.538;18.532;2023-12-29T01:00:44;100173.38;;;-1.09;100.00
80927;BME280;70385;44.538;18.532;2023-12-29T01:03:10;100186.16;;;-1.15;100.00
80927;BME280;70385;44.538;18.532;2023-12-29T01:05:35;100178.50;;;-1.12;100.00
80927;BME280;70385;44.538;18.532;2023-12-29T01:08:01;100169.16;;;-1.05;100.00
80927;BME280;70385;44.538;18.532;2023-12-29T01:10:27;100171.78;;;-1.01;100.00
80927;BME280;70385;44.538;18.532;2023-12-29T01:12:53;100176.94;;;-1.01;100.00
80927;BME280;70385;44.538;18.532;2023-12-29T01:15:19;100168.38;;;-1.00;100.00
80927;BME280;70385;44.538;18.532;2023-12-29T01:17:46;100165.84;;;-0.97;100.00
80927;BME280;70385;44.538;18.532;2023-12-29T01:20:12;100158.09;;;-1.00;100.00
80927;BME280;70385;44.538;18.532;2023-12-29T01:22:41;100154.75;;;-0.96;100.00
80927;BME280;70385;44.538;18.532;2023-12-29T01:25:09;100156.41;;;-0.99;100.00
80927;BME280;70385;44.538;18.532;2023-12-29T01:27:36;100146.97;;;-0.99;100.00
80927;BME280;70385;44.538;18.532;2023-12-29T01:30:03;100153.91;;;-0.96;100.00
80927;BME280;70385;44.538;18.532;2023-12-29T01:32:30;100151.34;;;-0.95;100.00
80927;BME280;70385;44.538;18.532;2023-12-29T01:34:57;100149.38;;;-1.12;100.00
80927;BME280;70385;44.538;18.532;2023-12-29T01:37:24;100146.78;;;-1.15;100.00
80927;BME280;70385;44.538;18.532;2023-12-29T01:39:49;100139.72;;;-1.27;100.00
80927;BME280;70385;44.538;18.532;2023-12-29T01:42:15;100147.22;;;-1.39;100.00
80927;BME280;70385;44.538;18.532;2023-12-29T01:44:41;100142.84;;;-1.46;100.00
80927;BME280;70385;44.538;18.532;2023-12-29T01:47:15;100138.38;;;-1.57;100.00
80927;BME280;70385;44.538;18.532;2023-12-29T01:49:44;100150.25;;;-1.65;100.00
80927;BME280;70385;44.538;18.532;2023-12-29T01:52:14;100133.25;;;-1.57;100.00
80927;BME280;70385;44.538;18.532;2023-12-29T01:54:40;100134.94;;;-1.59;100.00
80927;BME280;70385;44.538;18.532;2023-12-29T01:57:08;100131.44;;;-1.64;100.00
80927;BME280;70385;44.538;18.532;2023-12-29T01:59:35;100133.13;;;-1.66;100.00
80927;BME280;70385;44.538;18.532;2023-12-29T02:02:02;100127.94;;;-1.69;100.00
80927;BME280;70385;44.538;18.532;2023-12-29T02:04:29;100122.88;;;-1.64;100.00
80927;BME280;70385;44.538;18.532;2023-12-29T02:06:57;100122.00;;;-1.66;100.00
80927;BME280;70385;44.538;18.532;2023-12-29T02:09:25;100125.44;;;-1.64;100.00
80927;BME280;70385;44.538;18.532;2023-12-29T02:11:51;100126.41;;;-1.58;100.00
80927;BME280;70385;44.538;18.532;2023-12-29T02:14:18;100125.56;;;-1.57;100.00
80927;BME280;70385;44.538;18.532;2023-12-29T02:17:07;100126.34;;;-1.61;100.00
80927;BME280;70385;44.538;18.532;2023-12-29T02:19:46;100122.94;;;-1.60;100.00
80927;BME280;70385;44.538;18.532;2023-12-29T02:22:15;100127.19;;;-1.62;100.00
80927;BME280;70385;44.538;18.532;2023-12-29T02:24:48;100127.13;;;-1.66;100.00
80927;BME280;70385;44.538;18.532;2023-12-29T02:27:30;100126.31;;;-1.64;100.00
80927;BME280;70385;44.538;18.532;2023-12-29T02:33:05;100120.97;;;-1.76;100.00
80927;BME280;70385;44.538;18.532;2023-12-29T02:35:34;100125.22;;;-1.78;100.00
80927;BME280;70385;44.538;18.532;2023-12-29T02:38:01;100133.69;;;-1.82;100.00
80927;BME280;70385;44.538;18.532;2023-12-29T02:40:28;100117.47;;;-1.81;100.00
80927;BME280;70385;44.538;18.532;2023-12-29T02:42:53;100115.84;;;-1.76;100.00
80927;BME280;70385;44.538;18.532;2023-12-29T02:45:20;100120.97;;;-1.76;100.00
80927;BME280;70385;44.538;18.532;2023-12-29T02:47:45;100120.19;;;-1.72;100.00
80927;BME280;70385;44.538;18.532;2023-12-29T02:50:11;100118.59;;;-1.65;100.00
80927;BME280;70385;44.538;18.532;2023-12-29T02:52:37;100118.69;;;-1.58;100.00
80927;BME280;70385;44.538;18.532;2023-12-29T02:55:03;100113.66;;;-1.53;100.00
80927;BME280;70385;44.538;18.532;2023-12-29T02:57:29;100128.25;;;-1.50;100.00
80927;BME280;70385;44.538;18.532;2023-12-29T02:59:56;100121.22;;;-1.61;100.00
80927;BME280;70385;44.538;18.532;2023-12-29T03:02:23;100123.03;;;-1.55;100.00
80927;BME280;70385;44.538;18.532;2023-12-29T03:04:50;100118.81;;;-1.51;100.00
80927;BME280;70385;44.538;18.532;2023-12-29T03:07:16;100117.97;;;-1.52;100.00
80927;BME280;70385;44.538;18.532;2023-12-29T03:09:42;100116.25;;;-1.51;100.00
80927;BME280;70385;44.538;18.532;2023-12-29T03:12:08;100116.28;;;-1.50;100.00
80927;BME280;70385;44.538;18.532;2023-12-29T03:14:35;100124.81;;;-1.51;100.00
80927;BME280;70385;44.538;18.532;2023-12-29T03:17:01;100121.22;;;-1.61;100.00
80927;BME280;70385;44.538;18.532;2023-12-29T03:19:27;100126.44;;;-1.56;100.00
80927;BME280;70385;44.538;18.532;2023-12-29T03:21:53;100135.09;;;-1.49;100.00
80927;BME280;70385;44.538;18.532;2023-12-29T03:24:20;100136.78;;;-1.51;100.00
80927;BME280;70385;44.538;18.532;2023-12-29T03:26:47;100129.97;;;-1.49;100.00
80927;BME280;70385;44.538;18.532;2023-12-29T03:29:15;100133.13;;;-1.66;100.00
80927;BME280;70385;44.538;18.532;2023-12-29T03:31:42;100142.56;;;-1.63;100.00
80927;BME280;70385;44.538;18.532;2023-12-29T03:34:07;100133.13;;;-1.66;100.00
80927;BME280;70385;44.538;18.532;2023-12-29T03:36:33;100132.47;;;-1.54;100.00
80927;BME280;70385;44.538;18.532;2023-12-29T03:39:00;100131.53;;;-1.58;100.00
80927;BME280;70385;44.538;18.532;2023-12-29T03:41:27;100134.25;;;-1.48;100.00
80927;BME280;70385;44.538;18.532;2023-12-29T03:43:53;100143.78;;;-1.41;100.00
80927;BME280;70385;44.538;18.532;2023-12-29T03:46:20;100135.19;;;-1.43;100.00
80927;BME280;70385;44.538;18.532;2023-12-29T03:48:46;100145.47;;;-1.42;100.00
80927;BME280;70385;44.538;18.532;2023-12-29T03:51:13;100138.66;;;-1.40;100.00
80927;BME280;70385;44.538;18.532;2023-12-29T03:53:39;100136.13;;;-1.37;100.00
80927;BME280;70385;44.538;18.532;2023-12-29T03:56:08;100150.84;;;-1.28;100.00
80927;BME280;70385;44.538;18.532;2023-12-29T03:58:35;100149.97;;;-1.29;100.00
80927;BME280;70385;44.538;18.532;2023-12-29T04:01:01;100136.34;;;-1.25;100.00
80927;BME280;70385;44.538;18.532;2023-12-29T04:03:28;100135.59;;;-1.17;100.00
80927;BME280;70385;44.538;18.532;2023-12-29T04:05:53;100145.13;;;-1.10;100.00
80927;BME280;70385;44.538;18.532;2023-12-29T04:08:19;100154.63;;;-1.03;100.00
80927;BME280;70385;44.538;18.532;2023-12-29T04:10:46;100160.56;;;-1.07;100.00
80927;BME280;70385;44.538;18.532;2023-12-29T04:13:13;100158.81;;;-1.11;100.00
80927;BME280;70385;44.538;18.532;2023-12-29T04:15:41;100160.56;;;-1.07;100.00
80927;BME280;70385;44.538;18.532;2023-12-29T04:18:07;100169.09;;;-1.10;100.00
80927;BME280;70385;44.538;18.532;2023-12-29T04:20:33;100157.81;;;-1.19;100.00
80927;BME280;70385;44.538;18.532;2023-12-29T04:22:58;100161.28;;;-1.16;100.00
80927;BME280;70385;44.538;18.532;2023-12-29T04:25:24;100157.91;;;-1.13;100.00
80927;BME280;70385;44.538;18.532;2023-12-29T04:27:52;100148.50;;;-1.14;100.00
80927;BME280;70385;44.538;18.532;2023-12-29T04:30:17;100154.38;;;-1.20;100.00
80927;BME280;70385;44.538;18.532;2023-12-29T04:32:43;100154.28;;;-1.28;100.00
80927;BME280;70385;44.538;18.532;2023-12-29T04:35:09;100161.97;;;-1.28;100.00
80927;BME280;70385;44.538;18.532;2023-12-29T04:37:38;100169.44;;;-1.43;100.00
80927;BME280;70385;44.538;18.532;2023-12-29T04:40:05;100179.66;;;-1.44;100.00
80927;BME280;70385;44.538;18.532;2023-12-29T04:42:31;100177.22;;;-1.37;100.00
80927;BME280;70385;44.538;18.532;2023-12-29T04:44:57;100178.91;;;-1.37;100.00
80927;BME280;70385;44.538;18.532;2023-12-29T04:47:22;100170.34;;;-1.38;100.00
80927;BME280;70385;44.538;18.532;2023-12-29T04:49:48;100154.09;;;-1.38;100.00
80927;BME280;70385;44.538;18.532;2023-12-29T04:52:14;100162.69;;;-1.36;100.00
80927;BME280;70385;44.538;18.532;2023-12-29T04:54:40;100161.78;;;-1.40;100.00
80927;BME280;70385;44.538;18.532;2023-12-29T04:57:06;100165.22;;;-1.38;100.00
80927;BME280;70385;44.538;18.532;2023-12-29T04:59:31;100167.03;;;-1.32;100.00
80927;BME280;70385;44.538;18.532;2023-12-29T05:01:57;100166.19;;;-1.31;100.00
80927;BME280;70385;44.538;18.532;2023-12-29T05:04:23;100158.56;;;-1.27;100.00
80927;BME280;70385;44.538;18.532;2023-12-29T05:06:52;100166.28;;;-1.25;100.00
80927;BME280;70385;44.538;18.532;2023-12-29T05:09:18;100158.34;;;-1.39;100.00
80927;BME280;70385;44.538;18.532;2023-12-29T05:11:43;100160.88;;;-1.43;100.00
80927;BME280;70385;44.538;18.532;2023-12-29T05:14:09;100165.16;;;-1.42;100.00
80927;BME280;70385;44.538;18.532;2023-12-29T05:16:35;100170.06;;;-1.56;100.00
80927;BME280;70385;44.538;18.532;2023-12-29T05:19:01;100175.34;;;-1.47;100.00
80927;BME280;70385;44.538;18.532;2023-12-29T05:21:27;100171.13;;;-1.43;100.00
80927;BME280;70385;44.538;18.532;2023-12-29T05:23:53;100170.34;;;-1.39;100.00
80927;BME280;70385;44.538;18.532;2023-12-29T05:26:19;100169.50;;;-1.37;100.00
80927;BME280;70385;44.538;18.532;2023-12-29T05:28:44;100174.59;;;-1.40;100.00
80927;BME280;70385;44.538;18.532;2023-12-29T05:31:12;100175.44;;;-1.41;100.00
80927;BME280;70385;44.538;18.532;2023-12-29T05:33:37;100176.88;;;-1.57;100.00
80927;BME280;70385;44.538;18.532;2023-12-29T05:36:09;100170.22;;;-1.47;100.00
80927;BME280;70385;44.538;18.532;2023-12-29T05:38:36;100164.19;;;-1.49;100.00
80927;BME280;70385;44.538;18.532;2023-12-29T05:41:03;100154.81;;;-1.47;100.00
80927;BME280;70385;44.538;18.532;2023-12-29T05:43:33;100167.72;;;-1.42;100.00
80927;BME280;70385;44.538;18.532;2023-12-29T05:46:01;100177.78;;;-1.55;100.00
80927;BME280;70385;44.538;18.532;2023-12-29T05:48:27;100171.78;;;-1.55;100.00
80927;BME280;70385;44.538;18.532;2023-12-29T05:50:53;100171.03;;;-1.49;100.00
80927;BME280;70385;44.538;18.532;2023-12-29T05:53:19;100171.03;;;-1.49;100.00
80927;BME280;70385;44.538;18.532;2023-12-29T05:55:45;100165.88;;;-1.51;100.00
80927;BME280;70385;44.538;18.532;2023-12-29T05:58:11;100185.63;;;-1.47;100.00
80927;BME280;70385;44.538;18.532;2023-12-29T06:00:37;100179.75;;;-1.38;100.00
80927;BME280;70385;44.538;18.532;2023-12-29T06:03:05;100155.81;;;-1.37;100.00
80927;BME280;70385;44.538;18.532;2023-12-29T06:05:31;100158.47;;;-1.34;100.00
80927;BME280;70385;44.538;18.532;2023-12-29T06:07:58;100166.06;;;-1.39;100.00
80927;BME280;70385;44.538;18.532;2023-12-29T06:10:23;100170.19;;;-1.50;100.00
80927;BME280;70385;44.538;18.532;2023-12-29T06:12:49;100163.28;;;-1.52;100.00
80927;BME280;70385;44.538;18.532;2023-12-29T06:15:16;100170.06;;;-1.56;100.00
80927;BME280;70385;44.538;18.532;2023-12-29T06:17:42;100170.88;;;-1.57;100.00
80927;BME280;70385;44.538;18.532;2023-12-29T06:20:10;100169.94;;;-1.62;100.00
80927;BME280;70385;44.538;18.532;2023-12-29T06:22:41;100177.72;;;-1.58;100.00
80927;BME280;70385;44.538;18.532;2023-12-29T06:25:10;100182.47;;;-1.79;100.00
80927;BME280;70385;44.538;18.532;2023-12-29T06:27:37;100165.41;;;-1.77;100.00
80927;BME280;70385;44.538;18.532;2023-12-29T06:30:12;100175.81;;;-1.71;100.00
80927;BME280;70385;44.538;18.532;2023-12-29T06:32:38;100169.81;;;-1.71;100.00
80927;BME280;70385;44.538;18.532;2023-12-29T06:35:05;100175.81;;;-1.71;100.00
80927;BME280;70385;44.538;18.532;2023-12-29T06:37:32;100180.09;;;-1.70;100.00
80927;BME280;70385;44.538;18.532;2023-12-29T06:39:58;100176.75;;;-1.66;100.00
80927;BME280;70385;44.538;18.532;2023-12-29T06:42:25;100164.59;;;-1.74;100.00
80927;BME280;70385;44.538;18.532;2023-12-29T06:44:51;100174.91;;;-1.73;100.00
80927;BME280;70385;44.538;18.532;2023-12-29T06:47:17;100162.13;;;-1.70;100.00
80927;BME280;70385;44.538;18.532;2023-12-29T06:49:43;100147.72;;;-1.62;100.00
80927;BME280;70385;44.538;18.532;2023-12-29T06:52:08;100149.53;;;-1.56;100.00
80927;BME280;70385;44.538;18.532;2023-12-29T06:54:34;100153.00;;;-1.54;100.00
80927;BME280;70385;44.538;18.532;2023-12-29T06:57:07;100149.72;;;-1.45;100.00
80927;BME280;70385;44.538;18.532;2023-12-29T06:59:33;100158.41;;;-1.36;100.00
80927;BME280;70385;44.538;18.532;2023-12-29T07:02:04;100149.81;;;-1.38;100.00
80927;BME280;70385;44.538;18.532;2023-12-29T07:04:51;100164.53;;;-1.29;100.00
80927;BME280;70385;44.538;18.532;2023-12-29T07:07:19;100163.84;;;-1.16;100.00
80927;BME280;70385;44.538;18.532;2023-12-29T07:09:47;100161.97;;;-1.28;100.00
80927;BME280;70385;44.538;18.532;2023-12-29T07:12:13;100162.75;;;-1.33;100.00
80927;BME280;70385;44.538;18.532;2023-12-29T07:14:41;100151.50;;;-1.40;100.00
80927;BME280;70385;44.538;18.532;2023-12-29T07:17:07;100165.44;;;-1.26;100.00
80927;BME280;70385;44.538;18.532;2023-12-29T07:19:33;100145.63;;;-1.34;100.00
80927;BME280;70385;44.538;18.532;2023-12-29T07:22:05;100134.56;;;-1.30;100.00
80927;BME280;70385;44.538;18.532;2023-12-29T07:24:32;100143.16;;;-1.27;100.00
80927;BME280;70385;44.538;18.532;2023-12-29T07:27:00;100150.84;;;-1.28;100.00
80927;BME280;70385;44.538;18.532;2023-12-29T07:29:31;100148.38;;;-1.20;100.00
80927;BME280;70385;44.538;18.532;2023-12-29T07:32:04;100132.94;;;-1.22;100.00
80927;BME280;70385;44.538;18.532;2023-12-29T07:34:32;100128.84;;;-1.11;100.00
80927;BME280;70385;44.538;18.532;2023-12-29T07:36:58;100133.09;;;-1.13;100.00
80927;BME280;70385;44.538;18.532;2023-12-29T07:39:24;100142.97;;;-1.37;100.00
80927;BME280;70385;44.538;18.532;2023-12-29T07:41:51;100143.97;;;-1.29;100.00
80927;BME280;70385;44.538;18.532;2023-12-29T07:44:17;100140.59;;;-1.27;100.00
80927;BME280;70385;44.538;18.532;2023-12-29T07:46:43;100141.53;;;-1.22;100.00
80927;BME280;70385;44.538;18.532;2023-12-29T07:49:11;100146.56;;;-1.28;100.00
80927;BME280;70385;44.538;18.532;2023-12-29T07:51:41;100154.41;;;-1.17;100.00
80927;BME280;70385;44.538;18.532;2023-12-29T07:54:07;100144.13;;;-1.18;100.00
80927;BME280;70385;44.538;18.532;2023-12-29T07:56:33;100140.00;;;-1.09;100.00
80927;BME280;70385;44.538;18.532;2023-12-29T07:58:59;100138.97;;;-1.20;100.00
80927;BME280;70385;44.538;18.532;2023-12-29T08:01:25;100150.41;;;-0.98;100.00
80927;BME280;70385;44.538;18.532;2023-12-29T08:03:53;100151.34;;;-0.96;100.00
80927;BME280;70385;44.538;18.532;2023-12-29T08:06:20;100147.75;;;-1.06;100.00
80927;BME280;70385;44.538;18.532;2023-12-29T08:08:45;100141.19;;;-0.85;100.00
80927;BME280;70385;44.538;18.532;2023-12-29T08:11:17;100151.34;;;-0.95;100.00
80927;BME280;70385;44.538;18.532;2023-12-29T08:13:44;100153.16;;;-0.87;100.00
80927;BME280;70385;44.538;18.532;2023-12-29T08:16:11;100158.34;;;-0.83;100.00
80927;BME280;70385;44.538;18.532;2023-12-29T08:18:38;100156.97;;;-0.58;100.00
80927;BME280;70385;44.538;18.532;2023-12-29T08:21:10;100148.22;;;-0.72;100.00
80927;BME280;70385;44.538;18.532;2023-12-29T08:23:43;100147.41;;;-0.70;100.00
80927;BME280;70385;44.538;18.532;2023-12-29T08:26:11;100146.59;;;-0.64;100.00
80927;BME280;70385;44.538;18.532;2023-12-29T08:28:39;100138.19;;;-0.54;100.00
80927;BME280;70385;44.538;18.532;2023-12-29T08:31:07;100148.47;;;-0.54;100.00
80927;BME280;70385;44.538;18.532;2023-12-29T08:33:34;100140.22;;;-0.25;100.00
80927;BME280;70385;44.538;18.532;2023-12-29T08:36:02;100156.25;;;-0.46;100.00
80927;BME280;70385;44.538;18.532;2023-12-29T08:38:29;100150.91;;;-0.63;100.00
80927;BME280;70385;44.538;18.532;2023-12-29T08:40:57;100153.69;;;-0.46;100.00
80927;BME280;70385;44.538;18.532;2023-12-29T08:43:24;100151.16;;;-0.42;100.00
80927;BME280;70385;44.538;18.532;2023-12-29T08:45:50;100146.25;;;-0.22;100.00
80927;BME280;70385;44.538;18.532;2023-12-29T08:48:16;100153.53;;;0.19;100.00
80927;BME280;70385;44.538;18.532;2023-12-29T08:50:42;100145.72;;;0.05;100.00
80927;BME280;70385;44.538;18.532;2023-12-29T08:53:11;100159.63;;;0.24;100.00
80927;BME280;70385;44.538;18.532;2023-12-29T08:55:37;100162.47;;;0.57;100.00
80927;BME280;70385;44.538;18.532;2023-12-29T08:58:03;100159.00;;;0.52;100.00
80927;BME280;70385;44.538;18.532;2023-12-29T09:00:29;100159.97;;;0.62;100.00
80927;BME280;70385;44.538;18.532;2023-12-29T09:02:56;100149.66;;;0.62;100.00
80927;BME280;70385;44.538;18.532;2023-12-29T09:05:24;100147.22;;;0.82;100.00
80927;BME280;70385;44.538;18.532;2023-12-29T09:07:52;100160.00;;;0.71;100.00
80927;BME280;70385;44.538;18.532;2023-12-29T09:10:19;100145.69;;;1.14;100.00
80927;BME280;70385;44.538;18.532;2023-12-29T09:12:44;100156.13;;;1.34;100.00
80927;BME280;70385;44.538;18.532;2023-12-29T09:15:10;100154.53;;;1.55;100.00
80927;BME280;70385;44.538;18.532;2023-12-29T09:17:36;100149.31;;;1.48;100.00
80927;BME280;70385;44.538;18.532;2023-12-29T09:20:04;100145.03;;;1.50;100.00
80927;BME280;70385;44.538;18.532;2023-12-29T09:22:33;100139.94;;;1.67;100.00
80927;BME280;70385;44.538;18.532;2023-12-29T09:25:01;100140.06;;;2.04;100.00
80927;BME280;70385;44.538;18.532;2023-12-29T09:27:27;100123.75;;;2.41;100.00
80927;BME280;70385;44.538;18.532;2023-12-29T09:29:53;100131.50;;;2.80;100.00
80927;BME280;70385;44.538;18.532;2023-12-29T09:32:19;100124.59;;;2.83;100.00
80927;BME280;70385;44.538;18.532;2023-12-29T09:34:44;100121.16;;;2.92;100.00
80927;BME280;70385;44.538;18.532;2023-12-29T09:37:10;100115.88;;;3.31;100.00
80927;BME280;70385;44.538;18.532;2023-12-29T09:39:41;100114.97;;;3.43;100.00
80927;BME280;70385;44.538;18.532;2023-12-29T09:42:11;100113.22;;;3.44;100.00
80927;BME280;70385;44.538;18.532;2023-12-29T09:44:41;100101.16;;;3.49;100.00
80927;BME280;70385;44.538;18.532;2023-12-29T09:47:13;100105.44;;;3.56;100.00
80927;BME280;70385;44.538;18.532;2023-12-29T09:49:42;100092.44;;;3.70;100.00
80927;BME280;70385;44.538;18.532;2023-12-29T09:52:11;100101.94;;;3.63;100.00
80927;BME280;70385;44.538;18.532;2023-12-29T09:54:38;100108.97;;;3.37;100.00
80927;BME280;70385;44.538;18.532;2023-12-29T09:57:07;100097.66;;;3.59;100.00
80927;BME280;70385;44.538;18.532;2023-12-29T09:59:35;100091.56;;;3.72;100.00
80927;BME280;70385;44.538;18.532;2023-12-29T10:02:15;100088.91;;;3.80;100.00
80927;BME280;70385;44.538;18.532;2023-12-29T10:04:43;100073.34;;;3.89;100.00
80927;BME280;70385;44.538;18.532;2023-12-29T10:07:12;100083.06;;;3.49;100.00
80927;BME280;70385;44.538;18.532;2023-12-29T10:09:40;100076.09;;;3.57;100.00
80927;BME280;70385;44.538;18.532;2023-12-29T10:12:09;100066.53;;;3.74;100.00
80927;BME280;70385;44.538;18.532;2023-12-29T10:14:46;100076.91;;;3.71;100.00
80927;BME280;70385;44.538;18.532;2023-12-29T10:17:41;100077.81;;;3.58;100.00
80927;BME280;70385;44.538;18.532;2023-12-29T10:23:12;100063.13;;;3.60;100.00
80927;BME280;70385;44.538;18.532;2023-12-29T10:25:39;100052.66;;;3.83;100.00
80927;BME280;70385;44.538;18.532;2023-12-29T10:28:09;100039.56;;;4.03;100.00
80927;BME280;70385;44.538;18.532;2023-12-29T10:30:35;100030.19;;;3.91;100.00
80927;BME280;70385;44.538;18.532;2023-12-29T10:33:03;100031.63;;;4.22;100.00
80927;BME280;70385;44.538;18.532;2023-12-29T10:35:30;100022.47;;;3.80;100.00
80927;BME280;70385;44.538;18.532;2023-12-29T10:38:13;100027.66;;;3.80;100.00
80927;BME280;70385;44.538;18.532;2023-12-29T10:40:40;100017.25;;;3.89;100.00
80927;BME280;70385;44.538;18.532;2023-12-29T10:43:06;100021.59;;;3.81;100.00
80927;BME280;70385;44.538;18.532;2023-12-29T10:45:34;100025.84;;;3.91;100.00
80927;BME280;70385;44.538;18.532;2023-12-29T10:48:00;100007.63;;;4.04;100.00
80927;BME280;70385;44.538;18.532;2023-12-29T10:50:27;100004.06;;;4.17;100.00
80927;BME280;70385;44.538;18.532;2023-12-29T10:53:12;100015.03;;;4.43;100.00
80927;BME280;70385;44.538;18.532;2023-12-29T10:55:38;100011.84;;;4.17;100.00
80927;BME280;70385;44.538;18.532;2023-12-29T10:58:05;100002.44;;;4.07;100.00
80927;BME280;70385;44.538;18.532;2023-12-29T11:00:31;99991.28;;;3.95;100.00
80927;BME280;70385;44.538;18.532;2023-12-29T11:03:00;99994.69;;;4.02;100.00
80927;BME280;70385;44.538;18.532;2023-12-29T11:05:27;99985.16;;;4.07;100.00
80927;BME280;70385;44.538;18.532;2023-12-29T11:07:54;99986.06;;;4.00;100.00
80927;BME280;70385;44.538;18.532;2023-12-29T11:10:25;99968.91;;;3.91;100.00
80927;BME280;70385;44.538;18.532;2023-12-29T11:12:51;99968.75;;;4.08;100.00
80927;BME280;70385;44.538;18.532;2023-12-29T11:15:17;99970.31;;;4.26;100.00
80927;BME280;70385;44.538;18.532;2023-12-29T11:17:44;99983.09;;;4.41;100.00
80927;BME280;70385;44.538;18.532;2023-12-29T11:20:16;99979.63;;;4.47;100.00
80927;BME280;70385;44.538;18.532;2023-12-29T11:22:46;99982.03;;;4.61;100.00
80927;BME280;70385;44.538;18.532;2023-12-29T11:25:13;99967.56;;;4.44;100.00
80927;BME280;70385;44.538;18.532;2023-12-29T11:27:42;99954.66;;;4.38;100.00
80927;BME280;70385;44.538;18.532;2023-12-29T11:30:09;99954.72;;;4.32;100.00
80927;BME280;70385;44.538;18.532;2023-12-29T11:35:20;99945.84;;;4.54;100.00
80927;BME280;70385;44.538;18.532;2023-12-29T11:40:23;99950.84;;;4.70;100.00
80927;BME280;70385;44.538;18.532;2023-12-29T11:42:53;99941.13;;;4.88;100.00
80927;BME280;70385;44.538;18.532;2023-12-29T11:45:31;99942.03;;;4.86;100.00
80927;BME280;70385;44.538;18.532;2023-12-29T11:48:03;99940.94;;;5.01;100.00
80927;BME280;70385;44.538;18.532;2023-12-29T11:50:31;99927.91;;;5.08;100.00
80927;BME280;70385;44.538;18.532;2023-12-29T11:52:59;99928.00;;;5.02;100.00
80927;BME280;70385;44.538;18.532;2023-12-29T11:55:50;99934.13;;;4.95;100.00
80927;BME280;70385;44.538;18.532;2023-12-29T11:58:27;99920.91;;;5.13;100.00
80927;BME280;70385;44.538;18.532;2023-12-29T12:00:55;99913.84;;;5.25;100.00
80927;BME280;70385;44.538;18.532;2023-12-29T12:03:24;99928.19;;;5.48;100.00
80927;BME280;70385;44.538;18.532;2023-12-29T12:05:52;99909.13;;;5.49;100.00
80927;BME280;70385;44.538;18.532;2023-12-29T12:08:36;99916.66;;;5.68;100.00
80927;BME280;70385;44.538;18.532;2023-12-29T12:13:59;99910.09;;;5.99;100.00
80927;BME280;70385;44.538;18.532;2023-12-29T12:16:50;99913.50;;;6.03;100.00
80927;BME280;70385;44.538;18.532;2023-12-29T12:19:17;99912.66;;;6.01;100.00
80927;BME280;70385;44.538;18.532;2023-12-29T12:21:46;99909.94;;;6.08;100.00
80927;BME280;70385;44.538;18.532;2023-12-29T12:24:15;99895.09;;;6.14;100.00
80927;BME280;70385;44.538;18.532;2023-12-29T12:26:44;99898.97;;;6.39;100.00
80927;BME280;70385;44.538;18.532;2023-12-29T12:29:12;99901.31;;;6.51;100.00
80927;BME280;70385;44.538;18.532;2023-12-29T12:31:57;99904.47;;;6.67;100.00
80927;BME280;70385;44.538;18.532;2023-12-29T12:34:25;99899.34;;;6.64;100.00
80927;BME280;70385;44.538;18.532;2023-12-29T12:36:53;99888.19;;;6.59;100.00
80927;BME280;70385;44.538;18.532;2023-12-29T12:39:38;99887.78;;;6.79;100.00
80927;BME280;70385;44.538;18.532;2023-12-29T12:42:08;99883.44;;;6.79;100.00
80927;BME280;70385;44.538;18.532;2023-12-29T12:44:38;99884.13;;;6.87;100.00
80927;BME280;70385;44.538;18.532;2023-12-29T12:47:08;99885.22;;;6.77;100.00
80927;BME280;70385;44.538;18.532;2023-12-29T12:49:35;99876.13;;;6.56;100.00
80927;BME280;70385;44.538;18.532;2023-12-29T12:52:02;99879.56;;;6.57;100.00
80927;BME280;70385;44.538;18.532;2023-12-29T12:54:30;99876.66;;;6.70;100.00